Maribor, Slovenia

5:33 PM CET on February 09, 2016 (GMT +0100)
Radizel | | Change Station
CLOSE
Current Station
Personal Weather Station
Location: Slivnica pri Mariboru, Maribor
Elevation: 984 ft
Nearby Weather Stations

Elev 984 ft 46.47 °N, 15.66 °E | Updated 19 seconds ago

Mostly Cloudy
Mostly Cloudy
52.2 °F
Feels Like 52.2 °F
N
6.0
Wind Variable Wind from SW
Gusts 7.4 mph

Today
High -- | Low -- °F
--% Chance of Precip.
Yesterday
High -- | Low -- °F
Precip. -- in
Pressure 29.56 in
Visibility 6.2 miles
Clouds Few 3000 ft
Scattered Clouds 6500 ft
Mostly Cloudy 30000 ft
Dew Point 43 °F
Humidity 72%
Rainfall 0.00 in
Snow Depth Not available.
7:11 AM 5:12 PM
New Moon, 2% visible
METAR LOWG 091620Z 18014KT 9999 FEW030 SCT065 BKN300 11/04 Q1001 NOSIG
Pressure 29.56 in
Visibility 6.2 miles
Clouds Few 3000 ft
Scattered Clouds 6500 ft
Mostly Cloudy 30000 ft
Dew Point 43 °F
Humidity 72%
Rainfall 0.00 in
Snow Depth Not available.
7:11 AM 5:12 PM
New Moon, 2% visible
METAR LOWG 091620Z 18014KT 9999 FEW030 SCT065 BKN300 11/04 Q1001 NOSIG

10-Day Weather Forecast

Almanac

Astronomy

Feb. 09, 2016 Rise Set
Actual Time
Civil Twilight
Nautical Twilight
Astronomical Twilight
Moon
Length of Visible Light
Length of Day
Tomorrow will be .
, % of the Moon is Illuminated

Today's Extremes

Country Highs Country Lows

Community

WunderPhotos

Upload Photos

1,891,630 photos uploaded!

WunderBlog® & News

Nearby

Air Quality

  Air Quality AQ Index Pollutant
Not available.

Snow Depth

Station Depth Elevation

Earthquake Activity

City Distance Mag. Time & Date
Minimum magnitude displayed is 2.5.

Coastal Water Temperatures

Place Temperature

Stations

Nearby Weather Stations

Station Location Temp. Windchill Dew Point Humidity Wind Precip. Elev Updated Type